地図

経路データ

SID SEASON NUMBER BASIN SUBBASIN NAME ISO_TIME NATURE LAT LON WMO_WIND WMO_PRES WMO_AGENCY TRACK_TYPE DIST2LAND LANDFALL IFLAG USA_AGENCY USA_ATCF_ID USA_LAT USA_LON USA_RECORD USA_STATUS USA_WIND USA_PRES USA_SSHS USA_R34_NE USA_R34_SE USA_R34_SW USA_R34_NW USA_R50_NE USA_R50_SE USA_R50_SW USA_R50_NW USA_R64_NE USA_R64_SE USA_R64_SW USA_R64_NW USA_POCI USA_ROCI USA_RMW USA_EYE TOKYO_LAT TOKYO_LON TOKYO_GRADE TOKYO_WIND TOKYO_PRES TOKYO_R50_DIR TOKYO_R50_LONG TOKYO_R50_SHORT TOKYO_R30_DIR TOKYO_R30_LONG TOKYO_R30_SHORT TOKYO_LAND CMA_LAT CMA_LON CMA_CAT CMA_WIND CMA_PRES HKO_LAT HKO_LON HKO_CAT HKO_WIND HKO_PRES NEWDELHI_LAT NEWDELHI_LON NEWDELHI_GRADE NEWDELHI_WIND NEWDELHI_PRES NEWDELHI_CI NEWDELHI_DP NEWDELHI_POCI REUNION_LAT REUNION_LON REUNION_TYPE REUNION_WIND REUNION_PRES REUNION_TNUM REUNION_CI REUNION_RMW REUNION_R34_NE REUNION_R34_SE REUNION_R34_SW REUNION_R34_NW REUNION_R50_NE REUNION_R50_SE REUNION_R50_SW REUNION_R50_NW REUNION_R64_NE REUNION_R64_SE REUNION_R64_SW REUNION_R64_NW BOM_LAT BOM_LON BOM_TYPE BOM_WIND BOM_PRES BOM_TNUM BOM_CI BOM_RMW BOM_R34_NE BOM_R34_SE BOM_R34_SW BOM_R34_NW BOM_R50_NE BOM_R50_SE BOM_R50_SW BOM_R50_NW BOM_R64_NE BOM_R64_SE BOM_R64_SW BOM_R64_NW BOM_ROCI BOM_POCI BOM_EYE BOM_POS_METHOD BOM_PRES_METHOD NADI_LAT NADI_LON NADI_CAT NADI_WIND NADI_PRES WELLINGTON_LAT WELLINGTON_LON WELLINGTON_WIND WELLINGTON_PRES DS824_LAT DS824_LON DS824_STAGE DS824_WIND DS824_PRES TD9636_LAT TD9636_LON TD9636_STAGE TD9636_WIND TD9636_PRES TD9635_LAT TD9635_LON TD9635_WIND TD9635_PRES TD9635_ROCI NEUMANN_LAT NEUMANN_LON NEUMANN_CLASS NEUMANN_WIND NEUMANN_PRES MLC_LAT MLC_LON MLC_CLASS MLC_WIND MLC_PRES USA_GUST BOM_GUST BOM_GUST_PER REUNION_GUST REUNION_GUST_PER USA_SEAHGT USA_SEARAD_NE USA_SEARAD_SE USA_SEARAD_SW USA_SEARAD_NW STORM_SPEED STORM_DIR
1929042S20042 1929 15 SI MM NOT_NAMED 1929-02-11 00:00:00 TS -19.5000 41.6000 main 276 269 _________O____ -1 -19.5000 41.6000 TC 25 3 174
1929042S20042 1929 15 SI MM NOT_NAMED 1929-02-11 03:00:00 TS -19.6575 41.6000 main 269 269 _________P____ -1 -19.6575 41.6000 TC 25 2 8
1929042S20042 1929 15 SI MM NOT_NAMED 1929-02-11 06:00:00 TS -19.2750 41.6500 reunion main 262 258 _____O___O____ -1 -17.7000 41.8000 99 9.90000 -19.8000 41.6000 TC 25 4 7
1929042S20042 1929 15 SI MM NOT_NAMED 1929-02-11 09:00:00 TS -19.2571 41.6573 main 262 258 _____P___P____ -1 -17.9125 41.7752 99 -19.9150 41.6000 TC 25 1 10
1929042S20042 1929 15 SI MM NOT_NAMED 1929-02-11 12:00:00 TS -19.2199 41.6617 main 258 258 _____P___O____ -1 -18.1250 41.7504 99 -20.0000 41.6000 TC 25 0 0
1929042S20042 1929 15 SI MM NOT_NAMED 1929-02-11 15:00:00 TS -19.2314 41.6621 main 258 258 _____P___P____ -1 -18.3375 41.7255 99 -20.0500 41.6075 TC 25 2 0
1929042S20042 1929 15 SI MM NOT_NAMED 1929-02-11 18:00:00 TS -19.3688 41.6452 main 274 274 _____P___O____ -1 -18.5501 41.7005 99 -20.1000 41.6000 TC 25 3 186
1929042S20042 1929 15 SI MM NOT_NAMED 1929-02-11 21:00:00 TS -19.5257 41.6113 main 276 269 _____P___P____ -1 -18.7626 41.6755 99 -20.2000 41.5575 TC 25 3 192
1929042S20042 1929 15 SI MM NOT_NAMED 1929-02-12 00:00:00 TS -19.6758 41.5707 main 269 269 _____P___O____ -1 -18.9751 41.6504 99 -20.3000 41.5000 TC 25 3 197
1929042S20042 1929 15 SI MM NOT_NAMED 1929-02-12 03:00:00 TS -19.7927 41.5311 main 274 267 _____P___P____ -1 -19.1875 41.6252 99 -20.3500 41.4425 TC 25 2 197
1929042S20042 1929 15 SI MM NOT_NAMED 1929-02-12 06:00:00 TS -19.9000 41.5000 reunion main 267 253 _____O___O____ -1 -19.4000 41.6000 99 9.90000 -20.4000 41.4000 TC 25 3 191
1929042S20042 1929 15 SI MM NOT_NAMED 1929-02-12 09:00:00 TS -20.0859 41.4740 main 253 241 _________P____ -1 99 -20.4925 41.3925 TC 25 4 186
1929042S20042 1929 15 SI MM NOT_NAMED 1929-02-12 12:00:00 TS -20.2896 41.4559 main 241 240 _________O____ -1 99 -20.6000 41.4000 TC 25 4 185
1929042S20042 1929 15 SI MM NOT_NAMED 1929-02-12 15:00:00 TS -20.5156 41.4309 main 240 227 _________P____ -1 99 -20.7000 41.4000 TC 25 5 186
1929042S20042 1929 15 SI MM NOT_NAMED 1929-02-12 18:00:00 TS -20.8000 41.4000 main 227 224 _________O____ -1 99 -20.8000 41.4000 TC 25 4 187
1929042S20042 1929 15 SI MM NOT_NAMED 1929-02-12 21:00:00 TS -20.8625 41.4000 main 224 222 _________P____ -1 99 -20.8625 41.4000 TC 25 2 172
1929042S20042 1929 15 SI MM NOT_NAMED 1929-02-13 00:00:00 TS -21.0000 41.4000 main 222 211 _________O____ -1 99 -21.0000 41.4000 TC 25 5 177
1929042S20042 1929 15 SI MM NOT_NAMED 1929-02-13 03:00:00 TS -21.3200 41.4074 main 211 193 _________P____ -1 99 -21.3200 41.4074 TC 25 7 0
1929042S20042 1929 15 SI MM NOT_NAMED 1929-02-13 06:00:00 TS -21.7000 41.4000 reunion main 193 186 _________O____ -1 -21.7000 41.4000 TC 25 7 183
1929042S20042 1929 15 SI MM NOT_NAMED 1929-02-13 09:00:00 TS -22.0000 41.3575 main 186 186 _________P____ -1 -22.0000 41.3575 TC 25 6 188
1929042S20042 1929 15 SI MM NOT_NAMED 1929-02-13 12:00:00 TS -22.3000 41.3000 main 195 195 _________O____ -1 -22.3000 41.3000 TC 25 7 189
1929042S20042 1929 15 SI MM NOT_NAMED 1929-02-13 15:00:00 TS -22.6425 41.2425 main 208 208 _________P____ -1 -22.6425 41.2425 TC 25 7 187
1929042S20042 1929 15 SI MM NOT_NAMED 1929-02-13 18:00:00 TS -23.0000 41.2000 main 219 219 _________O____ -1 -23.0000 41.2000 TC 25 7 184
1929042S20042 1929 15 SI MM NOT_NAMED 1929-02-13 21:00:00 TS -23.3275 41.1924 main 231 231 _________P____ -1 -23.3275 41.1924 TC 25 7 0
1929042S20042 1929 15 SI MM NOT_NAMED 1929-02-14 00:00:00 TS -23.7000 41.2000 main 244 244 _________O____ -1 -23.7000 41.2000 TC 25 9 178
1929042S20042 1929 15 SI MM NOT_NAMED 1929-02-14 03:00:00 TS -24.1775 41.1926 main 250 250 _________P____ -1 -24.1775 41.1926 TC 25 10 179
1929042S20042 1929 15 SI MM NOT_NAMED 1929-02-14 06:00:00 TS -24.7000 41.2000 reunion main 261 261 _________O____ -1 -24.7000 41.2000 TC 25 10 178
1929042S20042 1929 15 SI MM NOT_NAMED 1929-02-14 09:00:00 TS -25.2000 41.2425 main 270 263 _________P____ -1 -25.2000 41.2425 TC 25 10 175
1929042S20042 1929 15 SI MM NOT_NAMED 1929-02-14 12:00:00 TS -25.7000 41.3000 main 279 279 _________O____ -1 -25.7000 41.3000 TC 25 10 174
1929042S20042 1929 15 SI MM NOT_NAMED 1929-02-14 15:00:00 TS -26.1925 41.3574 main 292 292 _________P____ -1 -26.1925 41.3574 TC 25 10 175
1929042S20042 1929 15 SI MM NOT_NAMED 1929-02-14 18:00:00 TS -26.7000 41.4000 main 321 321 _________O____ -1 -26.7000 41.4000 TC 25 10 0
1929042S20042 1929 15 SI MM NOT_NAMED 1929-02-14 21:00:00 TS -27.2274 41.3634 main 357 357 _________P____ -1 -27.2274 41.3634 TC 25 11 180
1929042S20042 1929 15 SI MM NOT_NAMED 1929-02-15 00:00:00 TS -27.8000 41.4000 main 405 405 _________O____ -1 -27.8000 41.4000 TC 25 13 170
1929042S20042 1929 15 SI MM NOT_NAMED 1929-02-15 03:00:00 TS -28.4572 41.6101 main 452 452 _________P____ -1 -28.4572 41.6101 TC 25 14 158
1929042S20042 1929 15 SI MM NOT_NAMED 1929-02-15 06:00:00 TS -29.1000 42.0000 reunion main 486 486 _________O____ -1 -29.1000 42.0000 TC 25 15 145
1929042S20042 1929 15 SI MM NOT_NAMED 1929-02-15 09:00:00 TS -29.6452 42.5548 main 511 511 _________P____ -1 -29.6452 42.5548 TC 25 14 134
1929042S20042 1929 15 SI MM NOT_NAMED 1929-02-15 12:00:00 TS -30.1000 43.2000 main 539 535 _________O____ -1 -30.1000 43.2000 TC 25 14 128
1929042S20042 1929 15 SI MM NOT_NAMED 1929-02-15 15:00:00 TS -30.4870 43.7857 main 564 561 _________P____ -1 -30.4870 43.7857 TC 25 12 124
1929042S20042 1929 15 SI MM NOT_NAMED 1929-02-15 18:00:00 TS -30.8000 44.4000 main 585 584 _________O____ -1 -30.8000 44.4000 TC 25 13 117
1929042S20042 1929 15 SI MM NOT_NAMED 1929-02-15 21:00:00 TS -31.0635 45.0792 main 614 614 _________P____ -1 -31.0635 45.0792 TC 25 13 113
1929042S20042 1929 15 SI MM NOT_NAMED 1929-02-16 00:00:00 TS -31.3000 45.8000 main 637 _________O____ -1 -31.3000 45.8000 TC 25 13 111

IBTrACS Databaseについて

本データベースは、米国NOAAが公開する1842年以降の世界の熱帯低気圧のベストトラックデータアーカイブInternational Best Track Archive for Climate Stewardship (IBTrACS)を、ウェブで閲覧しやすい形式に変換したものです。

最終更新日:2021-11-26